createdAt,value
2023-05-22T00:00:22.125Z,0.00
2023-05-22T00:01:22.109Z,0.00
2023-05-22T00:02:22.135Z,0.00
2023-05-22T00:03:22.208Z,0.00
2023-05-22T00:04:22.137Z,0.00
2023-05-22T00:05:22.145Z,0.00
2023-05-22T00:06:22.083Z,0.00
2023-05-22T00:07:22.041Z,0.00
2023-05-22T00:08:22.049Z,0.00
2023-05-22T00:09:22.043Z,0.00
2023-05-22T00:10:22.042Z,0.00
2023-05-22T00:11:21.996Z,0.00
2023-05-22T00:12:21.982Z,0.00
2023-05-22T00:13:21.974Z,0.00
2023-05-22T00:14:22.023Z,0.00
2023-05-22T00:15:21.964Z,0.00
2023-05-22T00:16:21.997Z,0.00
2023-05-22T00:17:22.110Z,0.00
2023-05-22T00:18:21.954Z,0.00
2023-05-22T00:19:21.955Z,0.00
2023-05-22T00:20:21.900Z,0.00
2023-05-22T00:21:21.926Z,0.00
2023-05-22T00:22:21.936Z,0.00
2023-05-22T00:23:21.892Z,0.00
2023-05-22T00:24:21.900Z,0.00
2023-05-22T00:25:21.840Z,0.00
2023-05-22T00:26:21.876Z,0.00
2023-05-22T00:27:21.842Z,0.00
2023-05-22T00:28:21.830Z,0.00
2023-05-22T00:29:21.843Z,0.00
2023-05-22T00:30:21.848Z,0.00
2023-05-22T00:31:21.821Z,0.00
2023-05-22T00:32:21.833Z,0.00
2023-05-22T00:33:21.796Z,0.00
2023-05-22T00:34:21.797Z,0.00
2023-05-22T00:35:21.774Z,0.00
2023-05-22T00:36:21.757Z,0.00
2023-05-22T00:37:21.761Z,0.00
2023-05-22T00:38:21.746Z,0.00
2023-05-22T00:39:21.729Z,0.00
2023-05-22T00:40:21.698Z,0.00
2023-05-22T00:41:21.693Z,0.00
2023-05-22T00:42:21.684Z,0.00
2023-05-22T00:43:21.723Z,0.00
2023-05-22T00:44:21.688Z,0.00
2023-05-22T00:45:21.668Z,0.00
2023-05-22T00:46:21.865Z,0.00
2023-05-22T00:47:21.635Z,0.00
2023-05-22T00:48:21.617Z,0.00
2023-05-22T00:49:21.631Z,0.00
2023-05-22T00:50:21.626Z,0.00
2023-05-22T00:51:21.585Z,0.00
2023-05-22T00:52:21.574Z,0.00
2023-05-22T00:53:21.565Z,0.00
2023-05-22T00:54:21.584Z,0.00
2023-05-22T00:55:21.550Z,0.00
2023-05-22T00:56:21.543Z,0.00
2023-05-22T00:57:21.537Z,0.00
2023-05-22T00:58:21.525Z,0.00
2023-05-22T00:59:21.532Z,0.00
2023-05-22T01:00:21.491Z,0.00
2023-05-22T01:01:21.516Z,0.00
2023-05-22T01:02:21.480Z,0.00
2023-05-22T01:03:21.612Z,0.00
2023-05-22T01:04:21.467Z,0.00
2023-05-22T01:05:21.456Z,0.00
2023-05-22T01:06:21.442Z,0.00
2023-05-22T01:07:21.449Z,0.00
2023-05-22T01:08:21.461Z,0.00
2023-05-22T01:09:21.433Z,0.00
2023-05-22T01:10:21.403Z,0.00
2023-05-22T01:11:21.374Z,0.00
2023-05-22T01:12:21.400Z,0.00
2023-05-22T01:13:21.411Z,0.00
2023-05-22T01:14:21.368Z,0.00
2023-05-22T01:15:21.342Z,0.00
2023-05-22T01:16:21.386Z,0.00
2023-05-22T01:17:21.343Z,0.00
2023-05-22T01:18:21.343Z,0.00
2023-05-22T01:19:21.344Z,0.00
2023-05-22T01:20:21.302Z,0.00
2023-05-22T01:21:21.348Z,0.00
2023-05-22T01:22:21.298Z,0.00
2023-05-22T01:23:21.270Z,0.00
2023-05-22T01:24:21.256Z,0.00
2023-05-22T01:25:21.234Z,0.00
2023-05-22T01:26:21.226Z,0.00
2023-05-22T01:27:21.240Z,0.00
2023-05-22T01:28:21.204Z,0.00
2023-05-22T01:29:21.210Z,0.00
2023-05-22T01:30:21.249Z,0.00
2023-05-22T01:31:21.234Z,0.00
2023-05-22T01:32:21.233Z,0.00
2023-05-22T01:33:21.270Z,0.00
2023-05-22T01:34:21.185Z,0.00
2023-05-22T01:35:21.160Z,0.00
2023-05-22T01:36:21.154Z,0.00
2023-05-22T01:37:21.111Z,0.00
2023-05-22T01:38:21.121Z,0.00
2023-05-22T01:39:21.156Z,0.00
2023-05-22T01:40:21.152Z,0.00
2023-05-22T01:41:21.073Z,0.00
2023-05-22T01:42:21.081Z,0.00
2023-05-22T01:43:21.060Z,0.00
2023-05-22T01:44:21.064Z,0.00
2023-05-22T01:45:21.078Z,0.00
2023-05-22T01:46:21.201Z,0.00
2023-05-22T01:47:21.035Z,0.00
2023-05-22T01:48:21.073Z,0.00
2023-05-22T01:49:21.063Z,0.00
2023-05-22T01:50:21.085Z,0.00
2023-05-22T01:51:20.969Z,0.00
2023-05-22T01:52:20.978Z,0.00
2023-05-22T01:53:20.948Z,0.00
2023-05-22T01:54:20.959Z,0.00
2023-05-22T01:55:20.967Z,0.00
2023-05-22T01:56:20.918Z,0.00
2023-05-22T01:57:20.945Z,0.00
2023-05-22T01:58:20.899Z,0.00
2023-05-22T01:59:20.921Z,0.00
2023-05-22T02:00:20.917Z,0.00
2023-05-22T02:01:20.969Z,0.00
2023-05-22T02:02:20.877Z,0.00
2023-05-22T02:03:21.017Z,0.00
2023-05-22T02:04:20.887Z,0.00
2023-05-22T02:05:20.891Z,0.00
2023-05-22T02:06:20.852Z,0.00
2023-05-22T02:07:20.811Z,0.00
2023-05-22T02:08:20.823Z,0.00
2023-05-22T02:09:20.878Z,0.00
2023-05-22T02:10:20.796Z,0.00
2023-05-22T02:11:20.785Z,0.00
2023-05-22T02:12:20.764Z,0.00
2023-05-22T02:13:20.775Z,0.00
2023-05-22T02:14:20.780Z,0.00
2023-05-22T02:15:20.764Z,0.00
2023-05-22T02:16:20.862Z,0.00
2023-05-22T02:17:20.698Z,0.00
2023-05-22T02:18:20.734Z,0.00
2023-05-22T02:19:20.743Z,0.00
2023-05-22T02:20:20.688Z,0.00
2023-05-22T02:21:20.659Z,0.00
2023-05-22T02:22:20.658Z,0.00
2023-05-22T02:23:20.680Z,0.00
2023-05-22T02:24:20.680Z,0.00
2023-05-22T02:25:20.637Z,0.00
2023-05-22T02:26:20.614Z,0.00
2023-05-22T02:27:20.630Z,0.00
2023-05-22T02:28:20.636Z,0.00
2023-05-22T02:29:20.617Z,0.00
2023-05-22T02:30:20.578Z,0.00
2023-05-22T02:31:20.605Z,0.00
2023-05-22T02:32:20.643Z,0.00
2023-05-22T02:33:20.584Z,0.00
2023-05-22T02:34:20.542Z,0.00
2023-05-22T02:35:20.546Z,0.00
2023-05-22T02:36:20.513Z,0.00
2023-05-22T02:37:20.513Z,0.00
2023-05-22T02:38:20.494Z,0.00
2023-05-22T02:39:20.493Z,0.00
2023-05-22T02:40:20.462Z,0.00
2023-05-22T02:41:20.533Z,0.00
2023-05-22T02:42:20.501Z,0.00
2023-05-22T02:43:20.380Z,1.00
2023-05-22T02:44:20.391Z,1.00
2023-05-22T02:45:20.367Z,1.00
2023-05-22T02:46:20.492Z,1.00
2023-05-22T02:47:20.336Z,1.00
2023-05-22T02:48:20.326Z,2.00
2023-05-22T02:49:20.344Z,2.00
2023-05-22T02:50:20.309Z,2.00
2023-05-22T02:51:20.403Z,2.00
2023-05-22T02:52:20.285Z,2.00
2023-05-22T02:53:20.273Z,3.00
2023-05-22T02:54:20.270Z,5.00
2023-05-22T02:55:20.285Z,3.00
2023-05-22T02:56:20.259Z,4.00
2023-05-22T02:57:20.235Z,7.00
2023-05-22T02:58:20.226Z,7.00
2023-05-22T02:59:20.248Z,6.00
2023-05-22T03:00:20.258Z,9.00
2023-05-22T03:01:20.228Z,10.00
2023-05-22T03:02:20.184Z,8.00
2023-05-22T03:03:20.270Z,14.00
2023-05-22T03:04:20.176Z,17.00
2023-05-22T03:05:20.177Z,17.00
2023-05-22T03:06:20.180Z,22.00
2023-05-22T03:07:20.128Z,19.00
2023-05-22T03:08:20.112Z,23.00
2023-05-22T03:09:20.189Z,26.00
2023-05-22T03:10:20.125Z,28.00
2023-05-22T03:11:20.125Z,37.00
2023-05-22T03:12:20.072Z,38.00
2023-05-22T03:13:20.080Z,42.00
2023-05-22T03:14:20.068Z,44.00
2023-05-22T03:15:20.082Z,51.00
2023-05-22T03:16:20.061Z,55.00
2023-05-22T03:17:20.027Z,60.00
2023-05-22T03:18:20.027Z,64.00
2023-05-22T03:19:20.079Z,70.00
2023-05-22T03:20:20.025Z,75.00
2023-05-22T03:21:20.010Z,83.00
2023-05-22T03:22:19.962Z,89.00
2023-05-22T03:23:19.967Z,95.00
2023-05-22T03:24:19.983Z,98.00
2023-05-22T03:25:19.995Z,112.00
2023-05-22T03:26:19.929Z,118.00
2023-05-22T03:27:19.925Z,125.00
2023-05-22T03:28:19.915Z,131.00
2023-05-22T03:29:20.060Z,143.00
2023-05-22T03:30:19.916Z,152.00
2023-05-22T03:31:19.885Z,157.00
2023-05-22T03:32:19.876Z,166.00
2023-05-22T03:33:19.891Z,175.00
2023-05-22T03:34:19.860Z,187.00
2023-05-22T03:35:19.835Z,195.00
2023-05-22T03:36:19.818Z,206.00
2023-05-22T03:37:19.847Z,209.00
2023-05-22T03:38:19.830Z,220.00
2023-05-22T03:39:19.830Z,232.00
2023-05-22T03:40:19.788Z,242.00
2023-05-22T03:41:19.792Z,250.00
2023-05-22T03:42:19.789Z,260.00
2023-05-22T03:43:19.762Z,269.00
2023-05-22T03:44:19.772Z,279.00
2023-05-22T03:45:19.822Z,293.00
2023-05-22T03:46:19.798Z,306.00
2023-05-22T03:47:19.710Z,317.00
2023-05-22T03:48:19.696Z,330.00
2023-05-22T03:49:19.737Z,344.00
2023-05-22T03:50:19.666Z,361.00
2023-05-22T03:51:20.502Z,375.00
2023-05-22T03:52:19.727Z,400.00
2023-05-22T03:53:19.658Z,423.00
2023-05-22T03:54:19.720Z,450.00
2023-05-22T03:55:19.628Z,474.00
2023-05-22T03:56:19.627Z,489.00
2023-05-22T03:57:19.606Z,517.00
2023-05-22T03:58:19.665Z,553.00
2023-05-22T03:59:19.609Z,588.00
2023-05-22T04:00:19.634Z,612.00
2023-05-22T04:01:19.590Z,647.00
2023-05-22T04:02:19.579Z,671.00
2023-05-22T04:03:19.953Z,699.00
2023-05-22T04:04:19.534Z,728.00
2023-05-22T04:05:19.574Z,762.00
2023-05-22T04:06:19.509Z,800.00
2023-05-22T04:07:19.508Z,818.00
2023-05-22T04:08:19.521Z,857.00
2023-05-22T04:09:19.509Z,893.00
2023-05-22T04:10:19.521Z,924.00
2023-05-22T04:11:19.450Z,959.00
2023-05-22T04:12:19.465Z,983.00
2023-05-22T04:13:19.455Z,1017.00
2023-05-22T04:14:19.430Z,1035.00
2023-05-22T04:15:19.501Z,1053.00
2023-05-22T04:16:19.460Z,1065.00
2023-05-22T04:17:19.393Z,1091.00
2023-05-22T04:18:19.401Z,1106.00
2023-05-22T04:19:19.442Z,1127.00
2023-05-22T04:20:19.375Z,1149.00
2023-05-22T04:21:19.358Z,1173.00
2023-05-22T04:22:19.343Z,1197.00
2023-05-22T04:23:19.345Z,1225.00
2023-05-22T04:24:19.323Z,1251.00
2023-05-22T04:25:19.348Z,1287.00
2023-05-22T04:26:19.312Z,1332.00
2023-05-22T04:27:19.291Z,1370.00
2023-05-22T04:28:19.268Z,1411.00
2023-05-22T04:29:19.325Z,1443.00
2023-05-22T04:30:19.302Z,1481.00
2023-05-22T04:31:19.265Z,1539.00
2023-05-22T04:32:19.229Z,1583.00
2023-05-22T04:33:19.241Z,1641.00
2023-05-22T04:34:19.241Z,1682.00
2023-05-22T04:35:19.213Z,1750.00
2023-05-22T04:36:19.190Z,1835.00
2023-05-22T04:37:19.184Z,1891.00
2023-05-22T04:38:19.316Z,1925.00
2023-05-22T04:39:19.203Z,1972.00
2023-05-22T04:40:19.150Z,2013.00
2023-05-22T04:41:20.614Z,2055.00
2023-05-22T04:42:19.138Z,2109.00
2023-05-22T04:43:19.165Z,2184.00
2023-05-22T04:44:19.126Z,2249.00
2023-05-22T04:45:19.103Z,2334.00
2023-05-22T04:46:19.195Z,2430.00
2023-05-22T04:47:19.087Z,2532.00
2023-05-22T04:48:19.098Z,2630.00
2023-05-22T04:49:19.086Z,2727.00
2023-05-22T04:50:19.043Z,2811.00
2023-05-22T04:51:19.081Z,2858.00
2023-05-22T04:52:19.020Z,2842.00
2023-05-22T04:53:19.023Z,2791.00
2023-05-22T04:54:19.016Z,2999.00
2023-05-22T04:55:19.197Z,3070.00
2023-05-22T04:56:31.898Z,2927.00
2023-05-22T04:57:18.987Z,3075.00
2023-05-22T04:58:18.964Z,3340.00
2023-05-22T04:59:19.001Z,3669.00
2023-05-22T05:00:18.984Z,3774.00
2023-05-22T05:01:18.995Z,3549.00
2023-05-22T05:02:18.943Z,3321.00
2023-05-22T05:03:19.010Z,3225.00
2023-05-22T05:04:18.936Z,3294.00
2023-05-22T05:05:18.907Z,3326.00
2023-05-22T05:06:18.879Z,3403.00
2023-05-22T05:07:18.944Z,3488.00
2023-05-22T05:08:18.854Z,3598.00
2023-05-22T05:09:18.874Z,3676.00
2023-05-22T05:10:18.831Z,3730.00
2023-05-22T05:11:18.852Z,3700.00
2023-05-22T05:12:18.869Z,3805.00
2023-05-22T05:13:18.814Z,3922.00
2023-05-22T05:14:18.803Z,4102.00
2023-05-22T05:15:18.781Z,4940.00
2023-05-22T05:16:18.848Z,4669.00
2023-05-22T05:17:18.772Z,4733.00
2023-05-22T05:18:18.756Z,4694.00
2023-05-22T05:19:18.777Z,4781.00
2023-05-22T05:20:18.782Z,4657.00
2023-05-22T05:21:18.745Z,4833.00
2023-05-22T05:22:18.721Z,4803.00
2023-05-22T05:23:18.699Z,4754.00
2023-05-22T05:24:18.727Z,4195.00
2023-05-22T05:25:18.752Z,5364.00
2023-05-22T05:26:18.668Z,7139.00
2023-05-22T05:27:18.672Z,5803.00
2023-05-22T05:28:18.650Z,7405.00
2023-05-22T05:29:18.669Z,9026.00
2023-05-22T05:30:20.316Z,7950.00
2023-05-22T05:31:18.628Z,6963.00
2023-05-22T05:32:18.722Z,6174.00
2023-05-22T05:33:18.630Z,6318.00
2023-05-22T05:34:18.632Z,5745.00
2023-05-22T05:35:18.598Z,6013.00
2023-05-22T05:36:18.563Z,6130.00
2023-05-22T05:37:18.550Z,5714.00
2023-05-22T05:38:18.550Z,5497.00
2023-05-22T05:39:18.578Z,5403.00
2023-05-22T05:40:18.569Z,5230.00
2023-05-22T05:41:18.516Z,4971.00
2023-05-22T05:42:18.528Z,4022.00
2023-05-22T05:43:18.492Z,5855.00
2023-05-22T05:44:18.518Z,7801.00
2023-05-22T05:45:18.477Z,7304.00
2023-05-22T05:46:18.507Z,6475.00
2023-05-22T05:47:18.470Z,5625.00
2023-05-22T05:48:18.481Z,5738.00
2023-05-22T05:49:18.459Z,5740.00
2023-05-22T05:50:18.424Z,5499.00
2023-05-22T05:51:18.404Z,5784.00
2023-05-22T05:52:18.403Z,5674.00
2023-05-22T05:53:18.415Z,6880.00
2023-05-22T05:54:18.403Z,6713.00
2023-05-22T05:55:18.365Z,6058.00
2023-05-22T05:56:18.372Z,5767.00
2023-05-22T05:57:18.350Z,5697.00
2023-05-22T05:58:18.386Z,5499.00
2023-05-22T05:59:18.341Z,6153.00
2023-05-22T06:00:18.313Z,6077.00
2023-05-22T06:01:18.325Z,5985.00
2023-05-22T06:02:18.367Z,6069.00
2023-05-22T06:03:18.388Z,6359.00
2023-05-22T06:04:18.305Z,6367.00
2023-05-22T06:05:18.326Z,6150.00
2023-05-22T06:06:18.258Z,6237.00
2023-05-22T06:07:18.277Z,6255.00
2023-05-22T06:08:18.256Z,6401.00
2023-05-22T06:09:18.254Z,6560.00
2023-05-22T06:10:18.221Z,6716.00
2023-05-22T06:11:18.214Z,6918.00
2023-05-22T06:12:18.294Z,6982.00
2023-05-22T06:13:18.181Z,6954.00
2023-05-22T06:14:18.202Z,7046.00
2023-05-22T06:15:18.199Z,7422.00
2023-05-22T06:16:18.226Z,7481.00
2023-05-22T06:17:18.174Z,7751.00
2023-05-22T06:18:18.141Z,7577.00
2023-05-22T06:19:18.163Z,7543.00
2023-05-22T06:20:18.123Z,7838.00
2023-05-22T06:21:18.132Z,8421.00
2023-05-22T06:22:18.094Z,8666.00
2023-05-22T06:23:18.083Z,8496.00
2023-05-22T06:24:18.083Z,9102.00
2023-05-22T06:25:18.079Z,8910.00
2023-05-22T06:26:18.079Z,8704.00
2023-05-22T06:27:18.054Z,9408.00
2023-05-22T06:28:18.028Z,11206.00
2023-05-22T06:29:18.040Z,10100.00
2023-05-22T06:30:28.151Z,10883.00
2023-05-22T06:31:18.052Z,11072.00
2023-05-22T06:32:19.189Z,12271.00
2023-05-22T06:33:18.069Z,10269.00
2023-05-22T06:34:18.081Z,8548.00
2023-05-22T06:35:17.994Z,8208.00
2023-05-22T06:36:17.946Z,8069.00
2023-05-22T06:37:17.956Z,7916.00
2023-05-22T06:38:17.943Z,8281.00
2023-05-22T06:39:17.940Z,8580.00
2023-05-22T06:40:17.953Z,9126.00
2023-05-22T06:41:17.920Z,8823.00
2023-05-22T06:42:17.881Z,8711.00
2023-05-22T06:43:17.883Z,8629.00
2023-05-22T06:44:17.970Z,7360.00
2023-05-22T06:45:17.876Z,9348.00
2023-05-22T06:46:17.878Z,10230.00
2023-05-22T06:47:17.832Z,9626.00
2023-05-22T06:48:17.831Z,8765.00
2023-05-22T06:49:17.861Z,8313.00
2023-05-22T06:50:26.335Z,7808.00
2023-05-22T06:51:17.815Z,7257.00
2023-05-22T06:52:17.790Z,6993.00
2023-05-22T06:53:17.769Z,7552.00
2023-05-22T06:54:17.844Z,7088.00
2023-05-22T06:55:17.778Z,7296.00
2023-05-22T06:56:17.759Z,6588.00
2023-05-22T06:57:17.740Z,6443.00
2023-05-22T06:58:17.790Z,7533.00
2023-05-22T06:59:17.742Z,6670.00
2023-05-22T07:00:19.098Z,7069.00
2023-05-22T07:01:17.767Z,6895.00
2023-05-22T07:02:17.699Z,6341.00
2023-05-22T07:03:17.721Z,6085.00
2023-05-22T07:04:17.702Z,6005.00
2023-05-22T07:05:17.729Z,5996.00
2023-05-22T07:06:17.773Z,5968.00
2023-05-22T07:07:17.661Z,5849.00
2023-05-22T07:08:17.666Z,5746.00
2023-05-22T07:09:17.645Z,5719.00
2023-05-22T07:10:17.619Z,5795.00
2023-05-22T07:11:17.644Z,5955.00
2023-05-22T07:12:17.610Z,6145.00
2023-05-22T07:13:17.619Z,6346.00
2023-05-22T07:14:17.605Z,6527.00
2023-05-22T07:15:17.558Z,6761.00
2023-05-22T07:16:17.599Z,7069.00
2023-05-22T07:17:17.565Z,7452.00
2023-05-22T07:18:17.537Z,7736.00
2023-05-22T07:19:17.667Z,7990.00
2023-05-22T07:20:17.544Z,8198.00
2023-05-22T07:21:17.478Z,8371.00
2023-05-22T07:22:17.530Z,8602.00
2023-05-22T07:23:17.491Z,8700.00
2023-05-22T07:24:17.502Z,8648.00
2023-05-22T07:25:17.496Z,8661.00
2023-05-22T07:26:17.505Z,8671.00
2023-05-22T07:27:17.469Z,8681.00
2023-05-22T07:28:17.421Z,8715.00
2023-05-22T07:29:17.415Z,8636.00
2023-05-22T07:30:17.404Z,8504.00
2023-05-22T07:31:17.537Z,8182.00
2023-05-22T07:32:17.380Z,7813.00
2023-05-22T07:33:17.367Z,7462.00
2023-05-22T07:34:17.405Z,7177.00
2023-05-22T07:35:17.433Z,6997.00
2023-05-22T07:36:17.391Z,7037.00
2023-05-22T07:37:17.330Z,7116.00
2023-05-22T07:38:17.322Z,7293.00
2023-05-22T07:39:17.308Z,7499.00
2023-05-22T07:40:17.326Z,7724.00
2023-05-22T07:41:17.322Z,8046.00
2023-05-22T07:42:17.275Z,8449.00
2023-05-22T07:43:17.261Z,8840.00
2023-05-22T07:44:17.268Z,9191.00
2023-05-22T07:45:17.249Z,9495.00
2023-05-22T07:46:17.263Z,9816.00
2023-05-22T07:47:17.217Z,10123.00
2023-05-22T07:48:17.254Z,10395.00
2023-05-22T07:49:17.230Z,10728.00
2023-05-22T07:50:17.232Z,10922.00
2023-05-22T07:51:17.168Z,11133.00
2023-05-22T07:52:17.189Z,11222.00
2023-05-22T07:53:17.507Z,11278.00
2023-05-22T07:54:17.189Z,11534.00
2023-05-22T07:55:17.165Z,11855.00
2023-05-22T07:56:17.138Z,12528.00
2023-05-22T07:57:17.110Z,12745.00
2023-05-22T07:58:17.176Z,11918.00
2023-05-22T07:59:17.138Z,11580.00
2023-05-22T08:00:17.116Z,11243.00
2023-05-22T08:01:17.078Z,11276.00
2023-05-22T08:02:17.128Z,11173.00
2023-05-22T08:03:17.547Z,11884.00
2023-05-22T08:04:17.289Z,11731.00
2023-05-22T08:05:17.183Z,10843.00
2023-05-22T08:06:17.048Z,12256.00
2023-05-22T08:07:17.017Z,15279.00
2023-05-22T08:08:17.031Z,12822.00
2023-05-22T08:09:17.077Z,11583.00
2023-05-22T08:10:16.985Z,11401.00
2023-05-22T08:11:18.136Z,11277.00
2023-05-22T08:12:16.972Z,11024.00
2023-05-22T08:13:16.995Z,11291.00
2023-05-22T08:14:16.981Z,11316.00
2023-05-22T08:15:16.952Z,13860.00
2023-05-22T08:16:16.923Z,18689.00
2023-05-22T08:17:16.961Z,20059.00
2023-05-22T08:18:16.946Z,18144.00
2023-05-22T08:19:16.934Z,16826.00
2023-05-22T08:20:17.040Z,13580.00
2023-05-22T08:21:16.876Z,11151.00
2023-05-22T08:22:16.888Z,24918.00
2023-05-22T08:23:20.254Z,21703.00
2023-05-22T08:24:16.856Z,21380.00
2023-05-22T08:25:16.854Z,22035.00
2023-05-22T08:26:16.816Z,29478.00
2023-05-22T08:27:16.835Z,22498.00
2023-05-22T08:28:16.795Z,31217.00
2023-05-22T08:29:16.791Z,21094.00
2023-05-22T08:30:16.778Z,22762.00
2023-05-22T08:31:16.794Z,18897.00
2023-05-22T08:32:16.786Z,22600.00
2023-05-22T08:33:16.816Z,18955.00
2023-05-22T08:34:16.824Z,15536.00
2023-05-22T08:35:16.714Z,21840.00
2023-05-22T08:36:16.742Z,17552.00
2023-05-22T08:37:16.745Z,17680.00
2023-05-22T08:38:16.702Z,16324.00
2023-05-22T08:39:16.707Z,20039.00
2023-05-22T08:40:16.674Z,19084.00
2023-05-22T08:41:16.689Z,20841.00
2023-05-22T08:42:16.651Z,20302.00
2023-05-22T08:43:16.636Z,22157.00
2023-05-22T08:44:16.648Z,21154.00
2023-05-22T08:45:16.657Z,20995.00
2023-05-22T08:46:16.690Z,21305.00
2023-05-22T08:47:16.660Z,21256.00
2023-05-22T08:48:16.603Z,18563.00
2023-05-22T08:49:16.649Z,19669.00
2023-05-22T08:50:16.618Z,19686.00
2023-05-22T08:51:16.666Z,18726.00
2023-05-22T08:52:16.549Z,17397.00
2023-05-22T08:53:16.538Z,23327.00
2023-05-22T08:54:16.536Z,18167.00
2023-05-22T08:55:16.557Z,17864.00
2023-05-22T08:56:16.561Z,20882.00
2023-05-22T08:57:16.653Z,16963.00
2023-05-22T08:58:16.679Z,16568.00
2023-05-22T08:59:16.797Z,13969.00
2023-05-22T09:00:16.726Z,20082.00
2023-05-22T09:01:16.631Z,20938.00
2023-05-22T09:02:16.438Z,20130.00
2023-05-22T09:03:16.870Z,21336.00
2023-05-22T09:04:16.465Z,22538.00
2023-05-22T09:05:16.440Z,19326.00
2023-05-22T09:06:16.474Z,31860.00
2023-05-22T09:07:16.427Z,74369.00
2023-05-22T09:08:20.900Z,73326.00
2023-05-22T09:09:16.414Z,32095.00
2023-05-22T09:10:16.485Z,77953.00
2023-05-22T09:11:16.407Z,78397.00
2023-05-22T09:12:16.366Z,76981.00
2023-05-22T09:13:16.370Z,77205.00
2023-05-22T09:14:16.370Z,77185.00
2023-05-22T09:15:16.354Z,74795.00
2023-05-22T09:16:16.324Z,71892.00
2023-05-22T09:17:16.606Z,35518.00
2023-05-22T09:18:16.355Z,26690.00
2023-05-22T09:19:16.387Z,29183.00
2023-05-22T09:20:16.352Z,31257.00
2023-05-22T09:21:28.795Z,72551.00
2023-05-22T09:22:16.260Z,35189.00
2023-05-22T09:23:16.314Z,28427.00
2023-05-22T09:24:16.263Z,71244.00
2023-05-22T09:25:16.239Z,36233.00
2023-05-22T09:26:16.250Z,28228.00
2023-05-22T09:27:16.237Z,25933.00
2023-05-22T09:28:16.255Z,24222.00
2023-05-22T09:29:16.229Z,23807.00
2023-05-22T09:30:16.215Z,27242.00
2023-05-22T09:31:16.221Z,30197.00
2023-05-22T09:32:16.238Z,25765.00
2023-05-22T09:33:16.207Z,71059.00
2023-05-22T09:34:16.155Z,33581.00
2023-05-22T09:35:16.160Z,33839.00
2023-05-22T09:36:16.151Z,24761.00
2023-05-22T09:37:16.266Z,13158.00
2023-05-22T09:38:16.132Z,76261.00
2023-05-22T09:39:16.111Z,75099.00
2023-05-22T09:40:16.104Z,78752.00
2023-05-22T09:41:16.131Z,71311.00
2023-05-22T09:42:16.127Z,35898.00
2023-05-22T09:43:16.077Z,31587.00
2023-05-22T09:44:16.192Z,21490.00
2023-05-22T09:45:16.081Z,75766.00
2023-05-22T09:46:16.114Z,75397.00
2023-05-22T09:47:16.036Z,78395.00
2023-05-22T09:48:16.075Z,74051.00
2023-05-22T09:49:17.085Z,73946.00
2023-05-22T09:50:16.157Z,32823.00
2023-05-22T09:51:16.013Z,72558.00
2023-05-22T09:52:15.986Z,33946.00
2023-05-22T09:53:16.080Z,25970.00
2023-05-22T09:54:15.974Z,71207.00
2023-05-22T09:55:16.036Z,34871.00
2023-05-22T09:56:19.225Z,28947.00
2023-05-22T09:57:15.943Z,32409.00
2023-05-22T09:58:15.918Z,21706.00
2023-05-22T09:59:15.948Z,22014.00
2023-05-22T10:00:15.940Z,25460.00
2023-05-22T10:01:16.068Z,77582.00
2023-05-22T10:02:15.897Z,79488.00
2023-05-22T10:03:15.895Z,77343.00
2023-05-22T10:04:15.922Z,80889.00
2023-05-22T10:05:16.206Z,83718.00
2023-05-22T10:06:15.855Z,82815.00
2023-05-22T10:07:15.839Z,80810.00
2023-05-22T10:08:16.029Z,82030.00
2023-05-22T10:09:18.162Z,83235.00
2023-05-22T10:10:15.809Z,81964.00
2023-05-22T10:11:15.810Z,83087.00
2023-05-22T10:12:15.801Z,82910.00
2023-05-22T10:13:15.854Z,80864.00
2023-05-22T10:14:15.822Z,79960.00
2023-05-22T10:15:15.814Z,81590.00
2023-05-22T10:16:15.818Z,83236.00
2023-05-22T10:17:15.752Z,82987.00
2023-05-22T10:18:15.777Z,82010.00
2023-05-22T10:19:15.790Z,83056.00
2023-05-22T10:20:15.720Z,79479.00
2023-05-22T10:21:15.723Z,77685.00
2023-05-22T10:22:15.770Z,81779.00
2023-05-22T10:23:15.754Z,82197.00
2023-05-22T10:24:15.721Z,80387.00
2023-05-22T10:25:15.685Z,78321.00
2023-05-22T10:26:15.685Z,78810.00
2023-05-22T10:27:15.745Z,79191.00
2023-05-22T10:28:15.774Z,77485.00
2023-05-22T10:29:15.661Z,74901.00
2023-05-22T10:30:15.647Z,70526.00
2023-05-22T10:31:15.641Z,27072.00
2023-05-22T10:32:15.754Z,25342.00
2023-05-22T10:33:15.750Z,83321.00
2023-05-22T10:34:15.631Z,82716.00
2023-05-22T10:35:15.599Z,76837.00
2023-05-22T10:36:15.632Z,77786.00
2023-05-22T10:37:17.590Z,76967.00
2023-05-22T10:38:15.614Z,77010.00
2023-05-22T10:39:15.576Z,79248.00
2023-05-22T10:40:15.611Z,82362.00
2023-05-22T10:41:15.551Z,81825.00
2023-05-22T10:42:15.593Z,79913.00
2023-05-22T10:43:15.538Z,81321.00
2023-05-22T10:44:15.540Z,83096.00
2023-05-22T10:45:15.525Z,83123.00
2023-05-22T10:46:15.588Z,81639.00
2023-05-22T10:47:15.530Z,81257.00
2023-05-22T10:48:15.489Z,81924.00
2023-05-22T10:49:15.523Z,82585.00
2023-05-22T10:50:16.437Z,81189.00
2023-05-22T10:51:15.495Z,78061.00
2023-05-22T10:52:15.486Z,82855.00
2023-05-22T10:53:15.472Z,78134.00
2023-05-22T10:54:15.453Z,80521.00
2023-05-22T10:55:15.450Z,83719.00
2023-05-22T10:56:15.500Z,79527.00
2023-05-22T10:57:15.408Z,80149.00
2023-05-22T10:58:15.434Z,82479.00
2023-05-22T10:59:15.420Z,82645.00
2023-05-22T11:00:15.431Z,83114.00
2023-05-22T11:01:15.518Z,80892.00
2023-05-22T11:02:15.409Z,81980.00
2023-05-22T11:03:18.341Z,81880.00
2023-05-22T11:04:15.389Z,83204.00
2023-05-22T11:05:15.388Z,83256.00
2023-05-22T11:06:15.414Z,81838.00
2023-05-22T11:07:15.373Z,82560.00
2023-05-22T11:08:15.776Z,83174.00
2023-05-22T11:09:16.080Z,82890.00
2023-05-22T11:10:15.353Z,82137.00
2023-05-22T11:11:15.307Z,80093.00
2023-05-22T11:12:15.304Z,77022.00
2023-05-22T11:13:15.340Z,77676.00
2023-05-22T11:14:15.333Z,78040.00
2023-05-22T11:15:15.314Z,79232.00
2023-05-22T11:16:15.268Z,79722.00
2023-05-22T11:17:15.334Z,79025.00
2023-05-22T11:18:15.292Z,78466.00
2023-05-22T11:19:23.438Z,76776.00
2023-05-22T11:20:15.291Z,76705.00
2023-05-22T11:21:15.223Z,73883.00
2023-05-22T11:22:15.207Z,81222.00
2023-05-22T11:23:15.227Z,80689.00
2023-05-22T11:24:15.229Z,82478.00
2023-05-22T11:25:15.197Z,82135.00
2023-05-22T11:26:15.185Z,82054.00
2023-05-22T11:27:15.212Z,83286.00
2023-05-22T11:28:15.258Z,81287.00
2023-05-22T11:29:15.206Z,82490.00
2023-05-22T11:30:15.149Z,78967.00
2023-05-22T11:31:15.189Z,79178.00
2023-05-22T11:32:15.129Z,80809.00
2023-05-22T11:33:15.197Z,77753.00
2023-05-22T11:34:15.155Z,77866.00
2023-05-22T11:35:15.117Z,79457.00
2023-05-22T11:36:15.097Z,79673.00
2023-05-22T11:37:15.137Z,79883.00
2023-05-22T11:38:15.218Z,80196.00
2023-05-22T11:39:15.117Z,80839.00
2023-05-22T11:40:15.145Z,83134.00
2023-05-22T11:41:15.066Z,82894.00
2023-05-22T11:42:15.056Z,82342.00
2023-05-22T11:43:15.103Z,82612.00
2023-05-22T11:44:15.042Z,82928.00
2023-05-22T11:45:15.869Z,82648.00
2023-05-22T11:46:15.046Z,81367.00
2023-05-22T11:47:15.008Z,74618.00
2023-05-22T11:48:15.741Z,76701.00
2023-05-22T11:49:15.019Z,78456.00
2023-05-22T11:50:17.951Z,80603.00
2023-05-22T11:51:15.001Z,81048.00
2023-05-22T11:52:15.015Z,80388.00
2023-05-22T11:53:14.958Z,79694.00
2023-05-22T11:54:14.954Z,81574.00
2023-05-22T11:55:14.948Z,82460.00
2023-05-22T11:56:14.950Z,81703.00
2023-05-22T11:57:14.991Z,81916.00
2023-05-22T11:58:14.949Z,81987.00
2023-05-22T11:59:15.109Z,80789.00
2023-05-22T12:00:15.301Z,80242.00
2023-05-22T12:01:14.918Z,76829.00
2023-05-22T12:02:14.924Z,76049.00
2023-05-22T12:03:14.957Z,78763.00
2023-05-22T12:04:14.927Z,79793.00
2023-05-22T12:05:14.874Z,79530.00
2023-05-22T12:06:17.122Z,59150.00
2023-05-22T12:07:14.894Z,10373.00
2023-05-22T12:08:14.850Z,8765.00
2023-05-22T12:09:14.851Z,8136.00
2023-05-22T12:10:14.844Z,7278.00
2023-05-22T12:11:14.815Z,7402.00
2023-05-22T12:12:14.843Z,3751.00
2023-05-22T12:13:14.803Z,29902.00
2023-05-22T12:14:14.790Z,8474.00
2023-05-22T12:15:14.770Z,8970.00
2023-05-22T12:16:14.839Z,11661.00